sensor_id;sensor_type;location;lat;lon;timestamp;P1;durP1;ratioP1;P2;durP2;ratioP2
71343;SDS011;59146;43.850;25.948;2024-03-17T00:00:29;48.72;;;29.35;;
71343;SDS011;59146;43.850;25.948;2024-03-17T00:02:56;46.47;;;28.60;;
71343;SDS011;59146;43.850;25.948;2024-03-17T00:05:22;45.38;;;29.35;;
71343;SDS011;59146;43.850;25.948;2024-03-17T00:07:47;51.95;;;29.67;;
71343;SDS011;59146;43.850;25.948;2024-03-17T00:10:13;44.25;;;28.65;;
71343;SDS011;59146;43.850;25.948;2024-03-17T00:12:40;44.22;;;28.92;;
71343;SDS011;59146;43.850;25.948;2024-03-17T00:15:06;45.83;;;30.27;;
71343;SDS011;59146;43.850;25.948;2024-03-17T00:17:32;48.28;;;29.92;;
71343;SDS011;59146;43.850;25.948;2024-03-17T00:20:01;49.13;;;30.00;;
71343;SDS011;59146;43.850;25.948;2024-03-17T00:22:33;48.92;;;28.90;;
71343;SDS011;59146;43.850;25.948;2024-03-17T00:25:02;49.97;;;30.88;;
71343;SDS011;59146;43.850;25.948;2024-03-17T00:27:28;54.28;;;31.77;;
71343;SDS011;59146;43.850;25.948;2024-03-17T00:29:54;55.83;;;32.28;;
71343;SDS011;59146;43.850;25.948;2024-03-17T00:32:19;49.92;;;31.05;;
71343;SDS011;59146;43.850;25.948;2024-03-17T00:34:45;50.42;;;31.80;;
71343;SDS011;59146;43.850;25.948;2024-03-17T00:37:10;54.45;;;30.80;;
71343;SDS011;59146;43.850;25.948;2024-03-17T00:39:36;52.10;;;31.92;;
71343;SDS011;59146;43.850;25.948;2024-03-17T00:42:01;51.90;;;30.38;;
71343;SDS011;59146;43.850;25.948;2024-03-17T00:44:27;53.38;;;31.17;;
71343;SDS011;59146;43.850;25.948;2024-03-17T00:46:53;45.97;;;27.42;;
71343;SDS011;59146;43.850;25.948;2024-03-17T00:49:19;42.75;;;24.88;;
71343;SDS011;59146;43.850;25.948;2024-03-17T00:51:45;35.60;;;21.83;;
71343;SDS011;59146;43.850;25.948;2024-03-17T00:54:12;35.58;;;22.42;;
71343;SDS011;59146;43.850;25.948;2024-03-17T00:56:38;34.45;;;21.58;;
71343;SDS011;59146;43.850;25.948;2024-03-17T00:59:04;34.17;;;20.60;;
71343;SDS011;59146;43.850;25.948;2024-03-17T01:01:30;31.42;;;19.15;;
71343;SDS011;59146;43.850;25.948;2024-03-17T01:03:55;28.42;;;18.33;;
71343;SDS011;59146;43.850;25.948;2024-03-17T01:06:21;32.85;;;18.95;;
71343;SDS011;59146;43.850;25.948;2024-03-17T01:08:47;30.95;;;19.23;;
71343;SDS011;59146;43.850;25.948;2024-03-17T01:11:14;29.60;;;20.15;;
71343;SDS011;59146;43.850;25.948;2024-03-17T01:13:41;30.83;;;19.67;;
71343;SDS011;59146;43.850;25.948;2024-03-17T01:16:08;33.83;;;18.73;;
71343;SDS011;59146;43.850;25.948;2024-03-17T01:18:33;29.25;;;20.73;;
71343;SDS011;59146;43.850;25.948;2024-03-17T01:21:02;36.58;;;21.33;;
71343;SDS011;59146;43.850;25.948;2024-03-17T01:23:27;32.70;;;20.50;;
71343;SDS011;59146;43.850;25.948;2024-03-17T01:25:53;39.30;;;21.17;;
71343;SDS011;59146;43.850;25.948;2024-03-17T01:28:19;33.33;;;20.20;;
71343;SDS011;59146;43.850;25.948;2024-03-17T01:30:44;35.42;;;22.08;;
71343;SDS011;59146;43.850;25.948;2024-03-17T01:33:10;37.28;;;21.52;;
71343;SDS011;59146;43.850;25.948;2024-03-17T01:35:37;34.55;;;20.85;;
71343;SDS011;59146;43.850;25.948;2024-03-17T01:38:03;34.35;;;20.67;;
71343;SDS011;59146;43.850;25.948;2024-03-17T01:40:29;31.73;;;18.90;;
71343;SDS011;59146;43.850;25.948;2024-03-17T01:42:54;35.40;;;20.20;;
71343;SDS011;59146;43.850;25.948;2024-03-17T01:45:23;35.35;;;19.52;;
71343;SDS011;59146;43.850;25.948;2024-03-17T01:47:54;35.92;;;19.85;;
71343;SDS011;59146;43.850;25.948;2024-03-17T01:50:23;32.75;;;19.27;;
71343;SDS011;59146;43.850;25.948;2024-03-17T01:52:51;31.70;;;17.83;;
71343;SDS011;59146;43.850;25.948;2024-03-17T01:55:19;30.25;;;18.38;;
71343;SDS011;59146;43.850;25.948;2024-03-17T01:57:45;31.77;;;18.85;;
71343;SDS011;59146;43.850;25.948;2024-03-17T02:00:11;27.83;;;17.55;;
71343;SDS011;59146;43.850;25.948;2024-03-17T02:02:37;32.22;;;19.20;;
71343;SDS011;59146;43.850;25.948;2024-03-17T02:05:03;29.85;;;17.98;;
71343;SDS011;59146;43.850;25.948;2024-03-17T02:07:29;31.00;;;19.20;;
71343;SDS011;59146;43.850;25.948;2024-03-17T02:09:56;31.75;;;19.00;;
71343;SDS011;59146;43.850;25.948;2024-03-17T02:12:22;32.83;;;19.50;;
71343;SDS011;59146;43.850;25.948;2024-03-17T02:14:48;34.05;;;18.20;;
71343;SDS011;59146;43.850;25.948;2024-03-17T02:17:14;33.17;;;20.55;;
71343;SDS011;59146;43.850;25.948;2024-03-17T02:19:40;33.67;;;20.38;;
71343;SDS011;59146;43.850;25.948;2024-03-17T02:22:14;32.22;;;18.50;;
71343;SDS011;59146;43.850;25.948;2024-03-17T02:24:43;33.50;;;20.17;;
71343;SDS011;59146;43.850;25.948;2024-03-17T02:27:09;34.55;;;19.80;;
71343;SDS011;59146;43.850;25.948;2024-03-17T02:29:34;33.40;;;19.45;;
71343;SDS011;59146;43.850;25.948;2024-03-17T02:32:04;31.55;;;20.48;;
71343;SDS011;59146;43.850;25.948;2024-03-17T02:34:35;32.38;;;19.67;;
71343;SDS011;59146;43.850;25.948;2024-03-17T02:37:02;33.63;;;20.17;;
71343;SDS011;59146;43.850;25.948;2024-03-17T02:39:29;36.95;;;22.73;;
71343;SDS011;59146;43.850;25.948;2024-03-17T02:42:05;36.40;;;21.48;;
71343;SDS011;59146;43.850;25.948;2024-03-17T02:44:33;35.03;;;21.23;;
71343;SDS011;59146;43.850;25.948;2024-03-17T02:46:59;32.45;;;19.77;;
71343;SDS011;59146;43.850;25.948;2024-03-17T02:49:26;36.55;;;21.30;;
71343;SDS011;59146;43.850;25.948;2024-03-17T02:51:55;36.15;;;21.85;;
71343;SDS011;59146;43.850;25.948;2024-03-17T02:54:23;34.08;;;20.98;;
71343;SDS011;59146;43.850;25.948;2024-03-17T02:56:49;35.47;;;21.25;;
71343;SDS011;59146;43.850;25.948;2024-03-17T02:59:15;37.10;;;20.85;;
71343;SDS011;59146;43.850;25.948;2024-03-17T03:01:40;33.90;;;20.63;;
71343;SDS011;59146;43.850;25.948;2024-03-17T03:04:06;34.38;;;21.17;;
71343;SDS011;59146;43.850;25.948;2024-03-17T03:06:33;34.80;;;21.25;;
71343;SDS011;59146;43.850;25.948;2024-03-17T03:08:59;38.60;;;21.90;;
71343;SDS011;59146;43.850;25.948;2024-03-17T03:11:24;35.83;;;21.42;;
71343;SDS011;59146;43.850;25.948;2024-03-17T03:13:51;35.78;;;21.58;;
71343;SDS011;59146;43.850;25.948;2024-03-17T03:16:16;34.53;;;21.20;;
71343;SDS011;59146;43.850;25.948;2024-03-17T03:18:43;35.05;;;20.38;;
71343;SDS011;59146;43.850;25.948;2024-03-17T03:21:09;36.75;;;20.38;;
71343;SDS011;59146;43.850;25.948;2024-03-17T03:23:36;33.55;;;19.52;;
71343;SDS011;59146;43.850;25.948;2024-03-17T03:26:02;33.78;;;19.77;;
71343;SDS011;59146;43.850;25.948;2024-03-17T03:28:29;36.80;;;19.85;;
71343;SDS011;59146;43.850;25.948;2024-03-17T03:30:56;37.55;;;20.23;;
71343;SDS011;59146;43.850;25.948;2024-03-17T03:33:21;30.23;;;18.80;;
71343;SDS011;59146;43.850;25.948;2024-03-17T03:35:47;30.50;;;19.63;;
71343;SDS011;59146;43.850;25.948;2024-03-17T03:38:13;31.90;;;19.48;;
71343;SDS011;59146;43.850;25.948;2024-03-17T03:40:40;32.40;;;20.00;;
71343;SDS011;59146;43.850;25.948;2024-03-17T03:43:07;32.28;;;19.65;;
71343;SDS011;59146;43.850;25.948;2024-03-17T03:45:33;33.55;;;19.90;;
71343;SDS011;59146;43.850;25.948;2024-03-17T03:48:00;28.52;;;18.42;;
71343;SDS011;59146;43.850;25.948;2024-03-17T03:50:27;36.65;;;21.42;;
71343;SDS011;59146;43.850;25.948;2024-03-17T03:52:53;34.97;;;20.08;;
71343;SDS011;59146;43.850;25.948;2024-03-17T03:55:19;31.33;;;19.30;;
71343;SDS011;59146;43.850;25.948;2024-03-17T03:57:45;40.08;;;21.25;;
71343;SDS011;59146;43.850;25.948;2024-03-17T04:00:12;39.20;;;21.23;;
71343;SDS011;59146;43.850;25.948;2024-03-17T04:02:44;47.15;;;26.35;;
71343;SDS011;59146;43.850;25.948;2024-03-17T04:05:09;81.20;;;56.90;;
71343;SDS011;59146;43.850;25.948;2024-03-17T04:07:36;108.05;;;71.68;;
71343;SDS011;59146;43.850;25.948;2024-03-17T04:10:02;100.38;;;63.38;;
71343;SDS011;59146;43.850;25.948;2024-03-17T04:12:29;58.85;;;38.97;;
71343;SDS011;59146;43.850;25.948;2024-03-17T04:14:56;47.53;;;27.85;;
71343;SDS011;59146;43.850;25.948;2024-03-17T04:17:22;41.60;;;27.30;;
71343;SDS011;59146;43.850;25.948;2024-03-17T04:19:49;35.20;;;22.98;;
71343;SDS011;59146;43.850;25.948;2024-03-17T04:22:18;35.45;;;21.42;;
71343;SDS011;59146;43.850;25.948;2024-03-17T04:24:45;34.85;;;21.33;;
71343;SDS011;59146;43.850;25.948;2024-03-17T04:27:12;36.65;;;20.25;;
71343;SDS011;59146;43.850;25.948;2024-03-17T04:29:38;32.20;;;19.08;;
71343;SDS011;59146;43.850;25.948;2024-03-17T04:32:05;33.00;;;19.88;;
71343;SDS011;59146;43.850;25.948;2024-03-17T04:34:31;32.67;;;20.00;;
71343;SDS011;59146;43.850;25.948;2024-03-17T04:36:57;33.15;;;19.15;;
71343;SDS011;59146;43.850;25.948;2024-03-17T04:39:23;33.17;;;19.60;;
71343;SDS011;59146;43.850;25.948;2024-03-17T04:41:50;35.80;;;20.48;;
71343;SDS011;59146;43.850;25.948;2024-03-17T04:44:16;40.15;;;21.25;;
71343;SDS011;59146;43.850;25.948;2024-03-17T04:46:42;34.78;;;20.80;;
71343;SDS011;59146;43.850;25.948;2024-03-17T04:49:08;33.90;;;20.60;;
71343;SDS011;59146;43.850;25.948;2024-03-17T04:51:34;34.47;;;19.38;;
71343;SDS011;59146;43.850;25.948;2024-03-17T04:54:02;31.42;;;18.83;;
71343;SDS011;59146;43.850;25.948;2024-03-17T04:56:32;30.30;;;18.75;;
71343;SDS011;59146;43.850;25.948;2024-03-17T04:58:57;29.48;;;19.05;;
71343;SDS011;59146;43.850;25.948;2024-03-17T05:01:23;30.00;;;18.95;;
71343;SDS011;59146;43.850;25.948;2024-03-17T05:03:52;35.60;;;18.90;;
71343;SDS011;59146;43.850;25.948;2024-03-17T05:06:18;33.60;;;19.58;;
71343;SDS011;59146;43.850;25.948;2024-03-17T05:08:43;29.45;;;18.63;;
71343;SDS011;59146;43.850;25.948;2024-03-17T05:11:09;26.33;;;17.17;;
71343;SDS011;59146;43.850;25.948;2024-03-17T05:13:35;28.30;;;17.50;;
71343;SDS011;59146;43.850;25.948;2024-03-17T05:16:03;25.27;;;17.55;;
71343;SDS011;59146;43.850;25.948;2024-03-17T05:18:29;26.77;;;17.25;;
71343;SDS011;59146;43.850;25.948;2024-03-17T05:20:58;25.23;;;16.83;;
71343;SDS011;59146;43.850;25.948;2024-03-17T05:23:28;28.67;;;18.55;;
71343;SDS011;59146;43.850;25.948;2024-03-17T05:25:54;27.10;;;18.58;;
71343;SDS011;59146;43.850;25.948;2024-03-17T05:28:21;27.13;;;17.73;;
71343;SDS011;59146;43.850;25.948;2024-03-17T05:30:47;27.05;;;17.77;;
71343;SDS011;59146;43.850;25.948;2024-03-17T05:33:13;26.40;;;17.58;;
71343;SDS011;59146;43.850;25.948;2024-03-17T05:35:39;26.48;;;18.25;;
71343;SDS011;59146;43.850;25.948;2024-03-17T05:38:04;29.75;;;18.55;;
71343;SDS011;59146;43.850;25.948;2024-03-17T05:40:30;26.13;;;17.08;;
71343;SDS011;59146;43.850;25.948;2024-03-17T05:42:56;26.70;;;18.05;;
71343;SDS011;59146;43.850;25.948;2024-03-17T05:45:21;24.40;;;16.75;;
71343;SDS011;59146;43.850;25.948;2024-03-17T05:47:49;28.20;;;17.25;;
71343;SDS011;59146;43.850;25.948;2024-03-17T05:50:15;28.45;;;18.10;;
71343;SDS011;59146;43.850;25.948;2024-03-17T05:52:41;26.80;;;17.58;;
71343;SDS011;59146;43.850;25.948;2024-03-17T05:55:06;29.50;;;18.30;;
71343;SDS011;59146;43.850;25.948;2024-03-17T05:57:32;28.77;;;17.50;;
71343;SDS011;59146;43.850;25.948;2024-03-17T05:59:58;31.05;;;19.23;;
71343;SDS011;59146;43.850;25.948;2024-03-17T06:02:23;28.00;;;18.02;;
71343;SDS011;59146;43.850;25.948;2024-03-17T06:04:49;29.80;;;18.33;;
71343;SDS011;59146;43.850;25.948;2024-03-17T06:07:14;33.17;;;18.10;;
71343;SDS011;59146;43.850;25.948;2024-03-17T06:09:40;30.80;;;17.77;;
71343;SDS011;59146;43.850;25.948;2024-03-17T06:12:06;29.48;;;17.83;;
71343;SDS011;59146;43.850;25.948;2024-03-17T06:14:31;28.45;;;18.52;;
71343;SDS011;59146;43.850;25.948;2024-03-17T06:16:59;29.20;;;19.27;;
71343;SDS011;59146;43.850;25.948;2024-03-17T06:19:24;26.83;;;18.05;;
71343;SDS011;59146;43.850;25.948;2024-03-17T06:21:50;30.08;;;18.65;;
71343;SDS011;59146;43.850;25.948;2024-03-17T06:24:16;27.83;;;17.75;;
71343;SDS011;59146;43.850;25.948;2024-03-17T06:26:42;25.58;;;16.65;;
71343;SDS011;59146;43.850;25.948;2024-03-17T06:29:07;27.75;;;17.75;;
71343;SDS011;59146;43.850;25.948;2024-03-17T06:31:33;23.88;;;15.45;;
71343;SDS011;59146;43.850;25.948;2024-03-17T06:33:58;23.35;;;15.68;;
71343;SDS011;59146;43.850;25.948;2024-03-17T06:36:24;23.95;;;15.90;;
71343;SDS011;59146;43.850;25.948;2024-03-17T06:38:50;27.98;;;16.20;;
71343;SDS011;59146;43.850;25.948;2024-03-17T06:41:16;22.63;;;14.40;;
71343;SDS011;59146;43.850;25.948;2024-03-17T06:43:42;20.63;;;14.50;;
71343;SDS011;59146;43.850;25.948;2024-03-17T06:46:08;19.17;;;14.38;;
71343;SDS011;59146;43.850;25.948;2024-03-17T06:48:34;23.00;;;15.40;;
71343;SDS011;59146;43.850;25.948;2024-03-17T06:51:00;21.08;;;14.77;;
71343;SDS011;59146;43.850;25.948;2024-03-17T06:53:25;21.15;;;15.18;;
71343;SDS011;59146;43.850;25.948;2024-03-17T06:55:52;22.40;;;14.63;;
71343;SDS011;59146;43.850;25.948;2024-03-17T06:58:19;20.55;;;15.07;;
71343;SDS011;59146;43.850;25.948;2024-03-17T07:00:57;20.45;;;14.55;;
71343;SDS011;59146;43.850;25.948;2024-03-17T07:03:28;22.60;;;15.10;;
71343;SDS011;59146;43.850;25.948;2024-03-17T07:05:56;21.05;;;15.45;;
71343;SDS011;59146;43.850;25.948;2024-03-17T07:08:23;21.27;;;16.20;;
71343;SDS011;59146;43.850;25.948;2024-03-17T07:10:59;20.48;;;15.45;;
71343;SDS011;59146;43.850;25.948;2024-03-17T07:13:28;23.20;;;16.33;;
71343;SDS011;59146;43.850;25.948;2024-03-17T07:15:55;21.52;;;16.58;;
71343;SDS011;59146;43.850;25.948;2024-03-17T07:18:20;22.77;;;16.42;;
71343;SDS011;59146;43.850;25.948;2024-03-17T07:20:46;23.90;;;16.40;;
71343;SDS011;59146;43.850;25.948;2024-03-17T07:23:15;22.52;;;16.35;;
71343;SDS011;59146;43.850;25.948;2024-03-17T07:25:41;20.55;;;16.02;;
71343;SDS011;59146;43.850;25.948;2024-03-17T07:28:08;30.13;;;18.40;;
71343;SDS011;59146;43.850;25.948;2024-03-17T07:30:34;25.55;;;18.13;;
71343;SDS011;59146;43.850;25.948;2024-03-17T07:33:00;40.05;;;28.33;;
71343;SDS011;59146;43.850;25.948;2024-03-17T07:35:26;27.98;;;21.55;;
71343;SDS011;59146;43.850;25.948;2024-03-17T07:37:51;27.90;;;18.65;;
71343;SDS011;59146;43.850;25.948;2024-03-17T07:40:17;28.75;;;17.92;;
71343;SDS011;59146;43.850;25.948;2024-03-17T07:42:42;25.17;;;18.15;;
71343;SDS011;59146;43.850;25.948;2024-03-17T07:45:08;24.85;;;18.75;;
71343;SDS011;59146;43.850;25.948;2024-03-17T07:47:34;23.00;;;17.35;;
71343;SDS011;59146;43.850;25.948;2024-03-17T07:50:02;22.92;;;18.08;;
71343;SDS011;59146;43.850;25.948;2024-03-17T07:52:31;29.63;;;18.35;;
71343;SDS011;59146;43.850;25.948;2024-03-17T07:54:57;25.17;;;18.65;;
71343;SDS011;59146;43.850;25.948;2024-03-17T07:57:23;23.42;;;17.38;;
71343;SDS011;59146;43.850;25.948;2024-03-17T07:59:51;25.05;;;18.05;;
71343;SDS011;59146;43.850;25.948;2024-03-17T08:02:17;25.83;;;16.90;;
71343;SDS011;59146;43.850;25.948;2024-03-17T08:04:42;23.85;;;17.45;;
71343;SDS011;59146;43.850;25.948;2024-03-17T08:07:10;23.85;;;16.38;;
71343;SDS011;59146;43.850;25.948;2024-03-17T08:09:36;25.33;;;18.15;;
71343;SDS011;59146;43.850;25.948;2024-03-17T08:12:02;26.83;;;19.58;;
71343;SDS011;59146;43.850;25.948;2024-03-17T08:14:29;26.40;;;18.85;;
71343;SDS011;59146;43.850;25.948;2024-03-17T08:16:55;24.60;;;17.75;;
71343;SDS011;59146;43.850;25.948;2024-03-17T08:19:21;29.08;;;19.52;;
71343;SDS011;59146;43.850;25.948;2024-03-17T08:21:46;28.00;;;19.35;;
71343;SDS011;59146;43.850;25.948;2024-03-17T08:24:12;28.55;;;19.75;;
71343;SDS011;59146;43.850;25.948;2024-03-17T08:26:38;29.63;;;20.10;;
71343;SDS011;59146;43.850;25.948;2024-03-17T08:29:05;43.10;;;19.95;;
71343;SDS011;59146;43.850;25.948;2024-03-17T08:31:31;34.25;;;20.55;;
71343;SDS011;59146;43.850;25.948;2024-03-17T08:33:57;33.88;;;21.55;;
71343;SDS011;59146;43.850;25.948;2024-03-17T08:36:22;31.15;;;20.92;;
71343;SDS011;59146;43.850;25.948;2024-03-17T08:38:49;29.58;;;21.50;;
71343;SDS011;59146;43.850;25.948;2024-03-17T08:41:15;30.27;;;21.85;;
71343;SDS011;59146;43.850;25.948;2024-03-17T08:43:41;28.55;;;21.17;;
71343;SDS011;59146;43.850;25.948;2024-03-17T08:46:08;33.55;;;22.38;;
71343;SDS011;59146;43.850;25.948;2024-03-17T08:48:35;30.08;;;21.92;;
71343;SDS011;59146;43.850;25.948;2024-03-17T08:51:02;29.20;;;20.20;;
71343;SDS011;59146;43.850;25.948;2024-03-17T08:53:29;26.60;;;20.15;;
71343;SDS011;59146;43.850;25.948;2024-03-17T08:55:55;30.35;;;20.90;;
71343;SDS011;59146;43.850;25.948;2024-03-17T08:58:22;29.77;;;20.65;;
71343;SDS011;59146;43.850;25.948;2024-03-17T09:00:51;31.55;;;21.05;;
71343;SDS011;59146;43.850;25.948;2024-03-17T09:03:17;33.78;;;21.80;;
71343;SDS011;59146;43.850;25.948;2024-03-17T09:05:52;30.10;;;20.83;;
71343;SDS011;59146;43.850;25.948;2024-03-17T09:08:20;33.58;;;22.95;;
71343;SDS011;59146;43.850;25.948;2024-03-17T09:10:48;27.58;;;21.25;;
71343;SDS011;59146;43.850;25.948;2024-03-17T09:13:16;32.20;;;22.00;;
71343;SDS011;59146;43.850;25.948;2024-03-17T09:15:49;33.60;;;23.17;;
71343;SDS011;59146;43.850;25.948;2024-03-17T09:18:18;33.03;;;23.27;;
71343;SDS011;59146;43.850;25.948;2024-03-17T09:20:44;30.25;;;21.08;;
71343;SDS011;59146;43.850;25.948;2024-03-17T09:23:11;31.17;;;21.05;;
71343;SDS011;59146;43.850;25.948;2024-03-17T09:25:37;31.05;;;20.08;;
71343;SDS011;59146;43.850;25.948;2024-03-17T09:28:02;30.25;;;21.48;;
71343;SDS011;59146;43.850;25.948;2024-03-17T09:30:28;29.55;;;21.55;;
71343;SDS011;59146;43.850;25.948;2024-03-17T09:32:54;31.30;;;21.83;;
71343;SDS011;59146;43.850;25.948;2024-03-17T09:35:20;27.70;;;20.23;;
71343;SDS011;59146;43.850;25.948;2024-03-17T09:37:45;27.42;;;19.48;;
71343;SDS011;59146;43.850;25.948;2024-03-17T09:40:15;28.40;;;20.38;;
71343;SDS011;59146;43.850;25.948;2024-03-17T09:42:41;32.90;;;20.42;;
71343;SDS011;59146;43.850;25.948;2024-03-17T09:45:09;25.25;;;18.65;;
71343;SDS011;59146;43.850;25.948;2024-03-17T09:47:36;26.88;;;18.48;;
71343;SDS011;59146;43.850;25.948;2024-03-17T09:50:02;26.90;;;19.05;;
71343;SDS011;59146;43.850;25.948;2024-03-17T09:52:28;29.30;;;19.17;;
71343;SDS011;59146;43.850;25.948;2024-03-17T09:55:01;24.75;;;17.63;;
71343;SDS011;59146;43.850;25.948;2024-03-17T09:57:35;26.25;;;16.70;;
71343;SDS011;59146;43.850;25.948;2024-03-17T10:00:20;22.30;;;16.70;;
71343;SDS011;59146;43.850;25.948;2024-03-17T10:02:46;24.55;;;16.17;;
71343;SDS011;59146;43.850;25.948;2024-03-17T10:05:22;23.35;;;15.70;;
71343;SDS011;59146;43.850;25.948;2024-03-17T10:07:50;25.50;;;15.95;;
71343;SDS011;59146;43.850;25.948;2024-03-17T10:10:20;23.48;;;17.20;;
71343;SDS011;59146;43.850;25.948;2024-03-17T10:12:50;20.65;;;15.88;;
71343;SDS011;59146;43.850;25.948;2024-03-17T10:15:17;22.90;;;14.35;;
71343;SDS011;59146;43.850;25.948;2024-03-17T10:17:43;18.80;;;13.75;;
71343;SDS011;59146;43.850;25.948;2024-03-17T10:20:19;19.55;;;13.90;;
71343;SDS011;59146;43.850;25.948;2024-03-17T10:25:34;18.48;;;14.07;;
71343;SDS011;59146;43.850;25.948;2024-03-17T10:28:04;14.05;;;10.98;;
71343;SDS011;59146;43.850;25.948;2024-03-17T10:30:36;16.77;;;13.13;;
71343;SDS011;59146;43.850;25.948;2024-03-17T10:33:06;18.20;;;12.80;;
71343;SDS011;59146;43.850;25.948;2024-03-17T10:35:47;39.55;;;12.98;;
71343;SDS011;59146;43.850;25.948;2024-03-17T10:38:14;17.50;;;11.63;;
71343;SDS011;59146;43.850;25.948;2024-03-17T10:40:40;21.13;;;11.68;;
71343;SDS011;59146;43.850;25.948;2024-03-17T10:43:07;16.70;;;11.52;;
71343;SDS011;59146;43.850;25.948;2024-03-17T10:45:37;17.73;;;11.73;;
71343;SDS011;59146;43.850;25.948;2024-03-17T10:48:07;15.73;;;11.63;;
71343;SDS011;59146;43.850;25.948;2024-03-17T10:50:37;13.77;;;9.93;;
71343;SDS011;59146;43.850;25.948;2024-03-17T10:53:04;14.33;;;10.83;;
71343;SDS011;59146;43.850;25.948;2024-03-17T10:55:43;13.02;;;9.73;;
71343;SDS011;59146;43.850;25.948;2024-03-17T10:58:21;10.82;;;8.98;;
71343;SDS011;59146;43.850;25.948;2024-03-17T11:00:49;12.77;;;8.25;;
71343;SDS011;59146;43.850;25.948;2024-03-17T11:03:16;17.30;;;7.75;;
71343;SDS011;59146;43.850;25.948;2024-03-17T11:05:44;12.50;;;9.85;;
71343;SDS011;59146;43.850;25.948;2024-03-17T11:08:19;11.27;;;8.30;;
71343;SDS011;59146;43.850;25.948;2024-03-17T11:10:49;13.48;;;9.00;;
71343;SDS011;59146;43.850;25.948;2024-03-17T11:13:23;9.45;;;7.80;;
71343;SDS011;59146;43.850;25.948;2024-03-17T11:15:53;8.52;;;6.13;;
71343;SDS011;59146;43.850;25.948;2024-03-17T11:23:32;11.07;;;7.80;;
71343;SDS011;59146;43.850;25.948;2024-03-17T11:25:59;11.73;;;7.38;;
71343;SDS011;59146;43.850;25.948;2024-03-17T11:31:34;9.60;;;6.87;;
71343;SDS011;59146;43.850;25.948;2024-03-17T11:34:02;8.18;;;6.03;;
71343;SDS011;59146;43.850;25.948;2024-03-17T11:36:32;8.50;;;6.28;;
71343;SDS011;59146;43.850;25.948;2024-03-17T11:39:05;9.48;;;6.55;;
71343;SDS011;59146;43.850;25.948;2024-03-17T11:49:23;8.43;;;5.35;;
71343;SDS011;59146;43.850;25.948;2024-03-17T11:51:52;10.82;;;5.63;;
71343;SDS011;59146;43.850;25.948;2024-03-17T11:54:23;7.28;;;4.43;;
71343;SDS011;59146;43.850;25.948;2024-03-17T11:59:29;7.22;;;4.80;;
71343;SDS011;59146;43.850;25.948;2024-03-17T12:01:55;6.28;;;5.03;;
71343;SDS011;59146;43.850;25.948;2024-03-17T12:04:24;9.77;;;5.10;;
71343;SDS011;59146;43.850;25.948;2024-03-17T12:06:58;8.05;;;5.90;;
71343;SDS011;59146;43.850;25.948;2024-03-17T12:09:25;5.47;;;4.70;;
71343;SDS011;59146;43.850;25.948;2024-03-17T12:12:02;6.82;;;5.53;;
71343;SDS011;59146;43.850;25.948;2024-03-17T12:14:32;6.53;;;4.80;;
71343;SDS011;59146;43.850;25.948;2024-03-17T12:17:01;6.18;;;4.85;;
71343;SDS011;59146;43.850;25.948;2024-03-17T12:19:29;6.63;;;5.22;;
71343;SDS011;59146;43.850;25.948;2024-03-17T12:21:55;7.32;;;5.20;;
71343;SDS011;59146;43.850;25.948;2024-03-17T12:24:23;6.13;;;4.20;;
71343;SDS011;59146;43.850;25.948;2024-03-17T12:26:51;5.05;;;4.55;;
71343;SDS011;59146;43.850;25.948;2024-03-17T12:29:26;8.05;;;5.95;;
71343;SDS011;59146;43.850;25.948;2024-03-17T12:34:36;5.05;;;4.20;;
71343;SDS011;59146;43.850;25.948;2024-03-17T12:37:02;5.95;;;4.95;;
71343;SDS011;59146;43.850;25.948;2024-03-17T12:39:32;6.07;;;4.72;;
71343;SDS011;59146;43.850;25.948;2024-03-17T12:42:02;8.63;;;5.45;;
71343;SDS011;59146;43.850;25.948;2024-03-17T12:44:47;9.82;;;7.22;;
71343;SDS011;59146;43.850;25.948;2024-03-17T12:47:18;15.60;;;6.88;;
71343;SDS011;59146;43.850;25.948;2024-03-17T12:50:02;12.55;;;9.10;;
71343;SDS011;59146;43.850;25.948;2024-03-17T12:52:31;14.63;;;7.25;;
71343;SDS011;59146;43.850;25.948;2024-03-17T12:55:02;15.68;;;7.40;;
71343;SDS011;59146;43.850;25.948;2024-03-17T13:01:05;18.73;;;9.48;;
71343;SDS011;59146;43.850;25.948;2024-03-17T13:03:34;11.13;;;8.82;;
71343;SDS011;59146;43.850;25.948;2024-03-17T13:06:02;10.98;;;7.40;;
71343;SDS011;59146;43.850;25.948;2024-03-17T13:08:31;11.13;;;6.78;;
71343;SDS011;59146;43.850;25.948;2024-03-17T13:11:00;10.35;;;7.75;;
71343;SDS011;59146;43.850;25.948;2024-03-17T13:13:26;9.57;;;7.55;;
71343;SDS011;59146;43.850;25.948;2024-03-17T13:15:52;10.25;;;7.93;;
71343;SDS011;59146;43.850;25.948;2024-03-17T13:18:19;11.43;;;7.60;;
71343;SDS011;59146;43.850;25.948;2024-03-17T13:20:45;13.48;;;7.70;;
71343;SDS011;59146;43.850;25.948;2024-03-17T13:23:11;10.15;;;7.93;;
71343;SDS011;59146;43.850;25.948;2024-03-17T13:25:37;11.93;;;7.18;;
71343;SDS011;59146;43.850;25.948;2024-03-17T13:28:03;13.35;;;7.88;;
71343;SDS011;59146;43.850;25.948;2024-03-17T13:30:33;8.68;;;7.10;;
71343;SDS011;59146;43.850;25.948;2024-03-17T13:33:01;10.50;;;7.38;;
71343;SDS011;59146;43.850;25.948;2024-03-17T13:35:30;9.50;;;7.25;;
71343;SDS011;59146;43.850;25.948;2024-03-17T13:37:58;9.25;;;6.72;;
71343;SDS011;59146;43.850;25.948;2024-03-17T13:40:27;13.35;;;7.38;;
71343;SDS011;59146;43.850;25.948;2024-03-17T13:42:54;10.20;;;7.30;;
71343;SDS011;59146;43.850;25.948;2024-03-17T13:45:42;9.00;;;6.93;;
71343;SDS011;59146;43.850;25.948;2024-03-17T13:48:21;11.57;;;7.30;;
71343;SDS011;59146;43.850;25.948;2024-03-17T13:50:54;10.63;;;6.90;;
71343;SDS011;59146;43.850;25.948;2024-03-17T13:53:25;11.38;;;8.10;;
71343;SDS011;59146;43.850;25.948;2024-03-17T13:55:59;12.48;;;7.47;;
71343;SDS011;59146;43.850;25.948;2024-03-17T13:58:32;14.57;;;8.10;;
71343;SDS011;59146;43.850;25.948;2024-03-17T14:01:16;10.85;;;7.85;;
71343;SDS011;59146;43.850;25.948;2024-03-17T14:03:57;9.23;;;7.40;;
71343;SDS011;59146;43.850;25.948;2024-03-17T14:06:28;10.23;;;7.20;;
71343;SDS011;59146;43.850;25.948;2024-03-17T14:09:34;8.45;;;6.75;;
71343;SDS011;59146;43.850;25.948;2024-03-17T14:12:23;12.73;;;7.18;;
71343;SDS011;59146;43.850;25.948;2024-03-17T14:15:10;10.75;;;7.05;;
71343;SDS011;59146;43.850;25.948;2024-03-17T14:18:04;8.93;;;6.72;;
71343;SDS011;59146;43.850;25.948;2024-03-17T14:21:12;7.22;;;5.95;;
71343;SDS011;59146;43.850;25.948;2024-03-17T14:23:50;8.73;;;6.57;;
71343;SDS011;59146;43.850;25.948;2024-03-17T14:29:55;8.05;;;6.30;;
71343;SDS011;59146;43.850;25.948;2024-03-17T14:32:26;8.32;;;6.35;;
71343;SDS011;59146;43.850;25.948;2024-03-17T14:35:10;9.27;;;6.70;;
71343;SDS011;59146;43.850;25.948;2024-03-17T14:37:51;7.78;;;5.93;;
71343;SDS011;59146;43.850;25.948;2024-03-17T14:40:44;7.47;;;5.57;;
71343;SDS011;59146;43.850;25.948;2024-03-17T14:43:24;9.60;;;5.90;;
71343;SDS011;59146;43.850;25.948;2024-03-17T14:45:50;7.75;;;5.80;;
71343;SDS011;59146;43.850;25.948;2024-03-17T14:48:16;8.10;;;5.88;;
71343;SDS011;59146;43.850;25.948;2024-03-17T14:50:44;8.63;;;5.50;;